^^
Station Historical Data
Daily Summary for March 13, 2018 Units:  Both    English   Metric
« Previous Day
Next Day »
Daily Weekly Monthly Yearly Custom
  High: Low: Average:
Temperature: TemperatureF °F /  -17.8 °C 28.6 °F /  -1.9 °C 38 °F /  3.3 °C
Dew Point: DewpointF °F /  -17.8 °C 18.1 °F /  -7.7 °C 22 °F /  -5.6 °C
Humidity: Humidity% 37% 53%
Wind Speed: WindSpeedMPHmph /  0km/h - 2.8mph /  4.5km/h
Wind Gust: WindSpeedGustMPHmph /  0km/h - -
Wind- - SW
Pressure: PressureIn in /  0 hPa 30.41 in /  1029.7 hPa -
Precipitation: 0.00 in /  0 mm    
Historical Graphs
 
 
Tabular Data for March 13, 2018
Time Temperature Dew Point Pressure Wind Wind Speed Wind Gust Humidity Rainfall Rate (Hourly)
TemperatureF °F /  -17.8 °C DewpointF °F /  -17.8 °C PressureInin /  0hPa Calm     Humidity% HourlyPrecipInin /  0mm
00:04 35.8 °F /  2.1 °C 21.6 °F /  -5.8 °C 30.42in /  1030hPa West 0.9mph /  1.4km/h 8.0mph /  12.9km/h 56% 0.00in /  0mm
00:09 35.8 °F /  2.1 °C 21.2 °F /  -6 °C 30.42in /  1030hPa NE 4.9mph /  7.9km/h 11.0mph /  17.7km/h 55% 0.00in /  0mm
00:14 35.6 °F /  2 °C 21.0 °F /  -6.1 °C 30.42in /  1030hPa SSE 4.0mph /  6.4km/h 9.0mph /  14.5km/h 55% 0.00in /  0mm
00:19 35.4 °F /  1.9 °C 21.2 °F /  -6 °C 30.42in /  1030hPa NNE 0.9mph /  1.4km/h 6.0mph /  9.7km/h 56% 0.00in /  0mm
00:24 35.4 °F /  1.9 °C 21.2 °F /  -6 °C 30.42in /  1030hPa East 2.9mph /  4.7km/h 6.0mph /  9.7km/h 56% 0.00in /  0mm
00:30 35.6 °F /  2 °C 21.0 °F /  -6.1 °C 30.42in /  1030hPa WNW 2.0mph /  3.2km/h 7.0mph /  11.3km/h 55% 0.00in /  0mm
00:35 35.6 °F /  2 °C 21.0 °F /  -6.1 °C 30.42in /  1030hPa SW 2.0mph /  3.2km/h 4.0mph /  6.4km/h 55% 0.00in /  0mm
00:40 35.4 °F /  1.9 °C 21.7 °F /  -5.7 °C 30.42in /  1030hPa SW 0.9mph /  1.4km/h 2.0mph /  3.2km/h 57% 0.00in /  0mm
00:45 35.4 °F /  1.9 °C 21.7 °F /  -5.7 °C 30.42in /  1030hPa SE 0.9mph /  1.4km/h 9.0mph /  14.5km/h 57% 0.00in /  0mm
00:55 35.2 °F /  1.8 °C 21.6 °F /  -5.8 °C 30.42in /  1030hPa South 2.0mph /  3.2km/h 4.0mph /  6.4km/h 57% 0.00in /  0mm
01:00 35.1 °F /  1.7 °C 21.0 °F /  -6.1 °C 30.42in /  1030hPa SW 2.9mph /  4.7km/h 5.0mph /  8km/h 56% 0.00in /  0mm
01:05 35.1 °F /  1.7 °C 21.7 °F /  -5.7 °C 30.42in /  1030hPa WSW 4.0mph /  6.4km/h 5.0mph /  8km/h 58% 0.00in /  0mm
01:20 35.1 °F /  1.7 °C 21.7 °F /  -5.7 °C 30.43in /  1030.4hPa SE 2.9mph /  4.7km/h 5.0mph /  8km/h 58% 0.00in /  0mm
01:25 35.1 °F /  1.7 °C 21.4 °F /  -5.9 °C 30.43in /  1030.4hPa SW 2.0mph /  3.2km/h 5.0mph /  8km/h 57% 0.00in /  0mm
01:30 35.1 °F /  1.7 °C 21.4 °F /  -5.9 °C 30.43in /  1030.4hPa Calm   9.0mph /  14.5km/h 57% 0.00in /  0mm
01:40 34.9 °F /  1.6 °C 21.2 °F /  -6 °C 30.43in /  1030.4hPa West 2.9mph /  4.7km/h 10.0mph /  16.1km/h 57% 0.00in /  0mm
01:45 34.9 °F /  1.6 °C 21.9 °F /  -5.6 °C 30.42in /  1030hPa WSW 4.0mph /  6.4km/h 12.0mph /  19.3km/h 59% 0.00in /  0mm
01:55 34.9 °F /  1.6 °C 21.9 °F /  -5.6 °C 30.42in /  1030hPa WSW 4.0mph /  6.4km/h 13.0mph /  20.9km/h 59% 0.00in /  0mm
02:00 34.9 °F /  1.6 °C 21.6 °F /  -5.8 °C 30.43in /  1030.4hPa WNW 2.0mph /  3.2km/h 7.0mph /  11.3km/h 58% 0.00in /  0mm
02:05 34.9 °F /  1.6 °C 21.6 °F /  -5.8 °C 30.43in /  1030.4hPa Calm   13.0mph /  20.9km/h 58% 0.00in /  0mm
02:11 34.9 °F /  1.6 °C 21.9 °F /  -5.6 °C 30.43in /  1030.4hPa WNW 2.9mph /  4.7km/h 3.0mph /  4.8km/h 59% 0.00in /  0mm
02:26 34.5 °F /  1.4 °C 21.7 °F /  -5.7 °C 30.43in /  1030.4hPa West 0.9mph /  1.4km/h 7.0mph /  11.3km/h 59% 0.00in /  0mm
02:36 34.3 °F /  1.3 °C 22.3 °F /  -5.4 °C 30.43in /  1030.4hPa Calm   6.0mph /  9.7km/h 61% 0.00in /  0mm
03:01 34.2 °F /  1.2 °C 21.7 °F /  -5.7 °C 30.43in /  1030.4hPa WNW 4.9mph /  7.9km/h 9.0mph /  14.5km/h 60% 0.00in /  0mm
03:06 34.2 °F /  1.2 °C 21.7 °F /  -5.7 °C 30.43in /  1030.4hPa Calm   5.0mph /  8km/h 60% 0.00in /  0mm
03:16 34.0 °F /  1.1 °C 21.6 °F /  -5.8 °C 30.44in /  1030.7hPa NW 0.9mph /  1.4km/h 11.0mph /  17.7km/h 60% 0.00in /  0mm
03:26 33.8 °F /  1 °C 21.4 °F /  -5.9 °C 30.44in /  1030.7hPa SW 0.9mph /  1.4km/h 3.0mph /  4.8km/h 60% 0.00in /  0mm
03:31 33.6 °F /  0.9 °C 20.8 °F /  -6.2 °C 30.44in /  1030.7hPa SSW 0.9mph /  1.4km/h 5.0mph /  8km/h 59% 0.00in /  0mm
03:36 33.4 °F /  0.8 °C 21.0 °F /  -6.1 °C 30.44in /  1030.7hPa West 4.0mph /  6.4km/h 8.0mph /  12.9km/h 60% 0.00in /  0mm
03:41 33.4 °F /  0.8 °C 21.4 °F /  -5.9 °C 30.44in /  1030.7hPa South 0.9mph /  1.4km/h 2.0mph /  3.2km/h 61% 0.00in /  0mm
03:46 33.3 °F /  0.7 °C 21.7 °F /  -5.7 °C 30.43in /  1030.4hPa Calm   5.0mph /  8km/h 62% 0.00in /  0mm
03:51 33.3 °F /  0.7 °C 21.7 °F /  -5.7 °C 30.43in /  1030.4hPa Calm   6.0mph /  9.7km/h 62% 0.00in /  0mm
04:12 33.1 °F /  0.6 °C 21.9 °F /  -5.6 °C 30.43in /  1030.4hPa Calm   10.0mph /  16.1km/h 63% 0.00in /  0mm
04:17 33.1 °F /  0.6 °C 21.9 °F /  -5.6 °C 30.43in /  1030.4hPa Calm   4.0mph /  6.4km/h 63% 0.00in /  0mm
04:37 32.7 °F /  0.4 °C 21.6 °F /  -5.8 °C 30.43in /  1030.4hPa NE 2.0mph /  3.2km/h 9.0mph /  14.5km/h 63% 0.00in /  0mm
04:42 32.7 °F /  0.4 °C 21.6 °F /  -5.8 °C 30.43in /  1030.4hPa WNW 2.9mph /  4.7km/h 10.0mph /  16.1km/h 63% 0.00in /  0mm
04:47 32.7 °F /  0.4 °C 21.6 °F /  -5.8 °C 30.43in /  1030.4hPa SSW 0.9mph /  1.4km/h 5.0mph /  8km/h 63% 0.00in /  0mm
04:52 32.5 °F /  0.3 °C 21.4 °F /  -5.9 °C 30.43in /  1030.4hPa Calm   2.0mph /  3.2km/h 63% 0.00in /  0mm
04:57 32.5 °F /  0.3 °C 21.7 °F /  -5.7 °C 30.43in /  1030.4hPa WNW 0.9mph /  1.4km/h 3.0mph /  4.8km/h 64% 0.00in /  0mm
05:07 32.7 °F /  0.4 °C 21.9 °F /  -5.6 °C 30.43in /  1030.4hPa ESE 2.9mph /  4.7km/h 4.0mph /  6.4km/h 64% 0.00in /  0mm
05:12 32.7 °F /  0.4 °C 22.3 °F /  -5.4 °C 30.44in /  1030.7hPa WNW 4.9mph /  7.9km/h 6.0mph /  9.7km/h 65% 0.00in /  0mm
05:17 32.7 °F /  0.4 °C 22.3 °F /  -5.4 °C 30.44in /  1030.7hPa WSW 2.0mph /  3.2km/h 4.0mph /  6.4km/h 65% 0.00in /  0mm
05:22 32.7 °F /  0.4 °C 22.3 °F /  -5.4 °C 30.44in /  1030.7hPa West 0.9mph /  1.4km/h 6.0mph /  9.7km/h 65% 0.00in /  0mm
05:27 32.5 °F /  0.3 °C 22.1 °F /  -5.5 °C 30.44in /  1030.7hPa SSW 0.9mph /  1.4km/h 3.0mph /  4.8km/h 65% 0.00in /  0mm
05:32 32.5 °F /  0.3 °C 22.5 °F /  -5.3 °C 30.44in /  1030.7hPa West 4.0mph /  6.4km/h 5.0mph /  8km/h 66% 0.00in /  0mm
05:37 32.5 °F /  0.3 °C 22.1 °F /  -5.5 °C 30.45in /  1031hPa ESE 2.9mph /  4.7km/h 8.0mph /  12.9km/h 65% 0.00in /  0mm
05:43 32.4 °F /  0.2 °C 22.3 °F /  -5.4 °C 30.45in /  1031hPa SW 2.9mph /  4.7km/h 5.0mph /  8km/h 66% 0.00in /  0mm
05:48 32.4 °F /  0.2 °C 21.9 °F /  -5.6 °C 30.45in /  1031hPa ESE 2.0mph /  3.2km/h 3.0mph /  4.8km/h 65% 0.00in /  0mm
05:53 32.4 °F /  0.2 °C 22.3 °F /  -5.4 °C 30.45in /  1031hPa SW 0.9mph /  1.4km/h 4.0mph /  6.4km/h 66% 0.00in /  0mm
05:58 32.4 °F /  0.2 °C 21.9 °F /  -5.6 °C 30.45in /  1031hPa Calm   5.0mph /  8km/h 65% 0.00in /  0mm
06:03 32.4 °F /  0.2 °C 21.9 °F /  -5.6 °C 30.45in /  1031hPa Calm   2.0mph /  3.2km/h 65% 0.00in /  0mm
06:08 32.2 °F /  0.1 °C 22.1 °F /  -5.5 °C 30.45in /  1031hPa Calm   3.0mph /  4.8km/h 66% 0.00in /  0mm
06:13 32.0 °F /  0 °C 21.9 °F /  -5.6 °C 30.45in /  1031hPa WSW 6.0mph /  9.7km/h 8.0mph /  12.9km/h 66% 0.00in /  0mm
06:18 32.0 °F /  0 °C 21.9 °F /  -5.6 °C 30.45in /  1031hPa WSW 0.9mph /  1.4km/h 4.0mph /  6.4km/h 66% 0.00in /  0mm
06:23 32.0 °F /  0 °C 21.9 °F /  -5.6 °C 30.46in /  1031.4hPa Calm   3.0mph /  4.8km/h 66% 0.00in /  0mm
06:38 31.6 °F /  -0.2 °C 21.6 °F /  -5.8 °C 30.46in /  1031.4hPa Calm   2.0mph /  3.2km/h 66% 0.00in /  0mm
06:53 31.3 °F /  -0.4 °C 21.2 °F /  -6 °C 30.47in /  1031.7hPa Calm   1.0mph /  1.6km/h 66% 0.00in /  0mm
06:58 31.1 °F /  -0.5 °C 21.7 °F /  -5.7 °C 30.47in /  1031.7hPa ESE 2.0mph /  3.2km/h 2.0mph /  3.2km/h 68% 0.00in /  0mm
07:03 30.9 °F /  -0.6 °C 20.8 °F /  -6.2 °C 30.47in /  1031.7hPa East 2.0mph /  3.2km/h 3.0mph /  4.8km/h 66% 0.00in /  0mm
07:08 30.9 °F /  -0.6 °C 22.3 °F /  -5.4 °C 30.47in /  1031.7hPa Calm   1.0mph /  1.6km/h 70% 0.00in /  0mm
07:13 30.4 °F /  -0.9 °C 21.4 °F /  -5.9 °C 30.47in /  1031.7hPa Calm   1.0mph /  1.6km/h 69% 0.00in /  0mm
07:23 29.7 °F /  -1.3 °C 21.4 °F /  -5.9 °C 30.48in /  1032.1hPa Calm   1.0mph /  1.6km/h 71% 0.00in /  0mm
07:28 29.3 °F /  -1.5 °C 22.6 °F /  -5.2 °C 30.48in /  1032.1hPa Calm   1.0mph /  1.6km/h 76% 0.00in /  0mm
07:43 28.6 °F /  -1.9 °C 22.3 °F /  -5.4 °C 30.49in /  1032.4hPa NW 0.9mph /  1.4km/h 2.0mph /  3.2km/h 77% 0.00in /  0mm
07:48 28.8 °F /  -1.8 °C 21.6 °F /  -5.8 °C 30.49in /  1032.4hPa Calm   1.0mph /  1.6km/h 74% 0.00in /  0mm
07:53 28.9 °F /  -1.7 °C 21.0 °F /  -6.1 °C 30.49in /  1032.4hPa West 4.0mph /  6.4km/h 5.0mph /  8km/h 72% 0.00in /  0mm
07:58 29.8 °F /  -1.2 °C 19.2 °F /  -7.1 °C 30.50in /  1032.7hPa WNW 0.9mph /  1.4km/h 4.0mph /  6.4km/h 64% 0.00in /  0mm
08:03 30.2 °F /  -1 °C 19.0 °F /  -7.2 °C 30.50in /  1032.7hPa Calm   3.0mph /  4.8km/h 63% 0.00in /  0mm
08:09 30.4 °F /  -0.9 °C 18.9 °F /  -7.3 °C 30.50in /  1032.7hPa Calm   2.0mph /  3.2km/h 62% 0.00in /  0mm
08:29 29.7 °F /  -1.3 °C 20.5 °F /  -6.4 °C 30.51in /  1033.1hPa Calm   1.0mph /  1.6km/h 68% 0.00in /  0mm
08:34 29.8 °F /  -1.2 °C 20.3 °F /  -6.5 °C 30.51in /  1033.1hPa ENE 0.9mph /  1.4km/h 1.0mph /  1.6km/h 67% 0.00in /  0mm
08:44 29.5 °F /  -1.4 °C 20.7 °F /  -6.3 °C 30.52in /  1033.4hPa Calm     69% 0.00in /  0mm
08:49 29.7 °F /  -1.3 °C 21.0 °F /  -6.1 °C 30.52in /  1033.4hPa Calm   1.0mph /  1.6km/h 70% 0.00in /  0mm
08:59 30.7 °F /  -0.7 °C 19.6 °F /  -6.9 °C 30.51in /  1033.1hPa Calm   4.0mph /  6.4km/h 63% 0.00in /  0mm
09:14 35.6 °F /  2 °C 20.7 °F /  -6.3 °C 30.51in /  1033.1hPa Calm   3.0mph /  4.8km/h 54% 0.00in /  0mm
09:19 36.3 °F /  2.4 °C 20.3 °F /  -6.5 °C 30.51in /  1033.1hPa Calm   6.0mph /  9.7km/h 52% 0.00in /  0mm
09:29 36.9 °F /  2.7 °C 19.4 °F /  -7 °C 30.52in /  1033.4hPa ESE 2.9mph /  4.7km/h 6.0mph /  9.7km/h 49% 0.00in /  0mm
09:44 39.6 °F /  4.2 °C 20.5 °F /  -6.4 °C 30.52in /  1033.4hPa WNW 2.0mph /  3.2km/h 3.0mph /  4.8km/h 46% 0.00in /  0mm
09:59 37.8 °F /  3.2 °C 18.9 °F /  -7.3 °C 30.53in /  1033.7hPa WNW 4.0mph /  6.4km/h 9.0mph /  14.5km/h 46% 0.00in /  0mm
10:15 37.9 °F /  3.3 °C 18.5 °F /  -7.5 °C 30.53in /  1033.7hPa SW 2.9mph /  4.7km/h 3.0mph /  4.8km/h 45% 0.00in /  0mm
10:40 38.5 °F /  3.6 °C 18.5 °F /  -7.5 °C 30.53in /  1033.7hPa WNW 4.9mph /  7.9km/h 10.0mph /  16.1km/h 44% 0.00in /  0mm
10:45 38.1 °F /  3.4 °C 18.1 °F /  -7.7 °C 30.53in /  1033.7hPa WNW 4.0mph /  6.4km/h 12.0mph /  19.3km/h 44% 0.00in /  0mm
10:55 38.3 °F /  3.5 °C 18.3 °F /  -7.6 °C 30.53in /  1033.7hPa Calm   11.0mph /  17.7km/h 44% 0.00in /  0mm
11:00 38.1 °F /  3.4 °C 18.7 °F /  -7.4 °C 30.53in /  1033.7hPa WNW 8.1mph /  13km/h 11.0mph /  17.7km/h 45% 0.00in /  0mm
11:05 38.5 °F /  3.6 °C 19.6 °F /  -6.9 °C 30.53in /  1033.7hPa ENE 0.9mph /  1.4km/h 6.0mph /  9.7km/h 46% 0.00in /  0mm
11:25 38.5 °F /  3.6 °C 19.0 °F /  -7.2 °C 30.53in /  1033.7hPa North 0.9mph /  1.4km/h 7.0mph /  11.3km/h 45% 0.00in /  0mm
11:30 39.4 °F /  4.1 °C 20.3 °F /  -6.5 °C 30.53in /  1033.7hPa WSW 2.0mph /  3.2km/h 5.0mph /  8km/h 46% 0.00in /  0mm
11:35 39.0 °F /  3.9 °C 18.5 °F /  -7.5 °C 30.53in /  1033.7hPa NW 6.0mph /  9.7km/h 10.0mph /  16.1km/h 43% 0.00in /  0mm
11:40 39.2 °F /  4 °C 20.7 °F /  -6.3 °C 30.53in /  1033.7hPa WNW 2.0mph /  3.2km/h 8.0mph /  12.9km/h 47% 0.00in /  0mm
11:50 38.8 °F /  3.8 °C 19.4 °F /  -7 °C 30.52in /  1033.4hPa WSW 4.0mph /  6.4km/h 6.0mph /  9.7km/h 45% 0.00in /  0mm
11:55 39.7 °F /  4.3 °C 20.7 °F /  -6.3 °C 30.52in /  1033.4hPa WNW 4.9mph /  7.9km/h 7.0mph /  11.3km/h 46% 0.00in /  0mm
12:00 39.9 °F /  4.4 °C 20.3 °F /  -6.5 °C 30.52in /  1033.4hPa WNW 12.1mph /  19.5km/h 12.1mph /  19.5km/h 45% 0.00in /  0mm
12:05 40.1 °F /  4.5 °C 19.9 °F /  -6.7 °C 30.52in /  1033.4hPa West 2.9mph /  4.7km/h 4.0mph /  6.4km/h 44% 0.00in /  0mm
12:21 40.6 °F /  4.8 °C 18.9 °F /  -7.3 °C 30.51in /  1033.1hPa WSW 0.9mph /  1.4km/h 8.0mph /  12.9km/h 41% 0.00in /  0mm
12:26 40.6 °F /  4.8 °C 19.9 °F /  -6.7 °C 30.51in /  1033.1hPa West 2.0mph /  3.2km/h 10.0mph /  16.1km/h 43% 0.00in /  0mm
12:36 41.0 °F /  5 °C 21.7 °F /  -5.7 °C 30.50in /  1032.7hPa WSW 2.0mph /  3.2km/h 6.0mph /  9.7km/h 46% 0.00in /  0mm
12:51 41.7 °F /  5.4 °C 20.3 °F /  -6.5 °C 30.50in /  1032.7hPa WNW 4.9mph /  7.9km/h 8.0mph /  12.9km/h 42% 0.00in /  0mm
13:01 42.1 °F /  5.6 °C 20.7 °F /  -6.3 °C 30.50in /  1032.7hPa West 6.9mph /  11.1km/h 10.0mph /  16.1km/h 42% 0.00in /  0mm
13:06 41.9 °F /  5.5 °C 21.6 °F /  -5.8 °C 30.50in /  1032.7hPa South 0.9mph /  1.4km/h 4.0mph /  6.4km/h 44% 0.00in /  0mm
13:11 42.3 °F /  5.7 °C 21.4 °F /  -5.9 °C 30.50in /  1032.7hPa WNW 2.9mph /  4.7km/h 13.0mph /  20.9km/h 43% 0.00in /  0mm
13:16 42.1 °F /  5.6 °C 20.1 °F /  -6.6 °C 30.49in /  1032.4hPa ENE 6.9mph /  11.1km/h 10.0mph /  16.1km/h 41% 0.00in /  0mm
13:21 42.6 °F /  5.9 °C 22.3 °F /  -5.4 °C 30.49in /  1032.4hPa ESE 4.0mph /  6.4km/h 6.0mph /  9.7km/h 44% 0.00in /  0mm
13:31 42.6 °F /  5.9 °C 21.2 °F /  -6 °C 30.49in /  1032.4hPa WSW 4.0mph /  6.4km/h 9.0mph /  14.5km/h 42% 0.00in /  0mm
13:41 43.3 °F /  6.3 °C 22.3 °F /  -5.4 °C 30.48in /  1032.1hPa ENE 6.0mph /  9.7km/h 10.0mph /  16.1km/h 43% 0.00in /  0mm
13:56 43.5 °F /  6.4 °C 24.6 °F /  -4.1 °C 30.47in /  1031.7hPa West 2.0mph /  3.2km/h 12.0mph /  19.3km/h 47% 0.00in /  0mm
14:16 45.0 °F /  7.2 °C 25.0 °F /  -3.9 °C 30.46in /  1031.4hPa ENE 6.9mph /  11.1km/h 8.0mph /  12.9km/h 45% 0.00in /  0mm
14:22 45.1 °F /  7.3 °C 23.9 °F /  -4.5 °C 30.46in /  1031.4hPa WSW 4.9mph /  7.9km/h 5.0mph /  8km/h 43% 0.00in /  0mm
14:27 45.0 °F /  7.2 °C 22.6 °F /  -5.2 °C 30.45in /  1031hPa West 8.1mph /  13km/h 8.1mph /  13km/h 41% 0.00in /  0mm
14:47 45.9 °F /  7.7 °C 25.2 °F /  -3.8 °C 30.45in /  1031hPa East 4.9mph /  7.9km/h 8.0mph /  12.9km/h 44% 0.00in /  0mm
14:52 45.7 °F /  7.6 °C 22.8 °F /  -5.1 °C 30.45in /  1031hPa WSW 2.0mph /  3.2km/h 13.0mph /  20.9km/h 40% 0.00in /  0mm
14:57 45.7 °F /  7.6 °C 24.4 °F /  -4.2 °C 30.45in /  1031hPa ENE 2.9mph /  4.7km/h 18.0mph /  29km/h 43% 0.00in /  0mm
15:02 45.3 °F /  7.4 °C 24.1 °F /  -4.4 °C 30.45in /  1031hPa WSW 2.0mph /  3.2km/h 13.0mph /  20.9km/h 43% 0.00in /  0mm
15:12 46.2 °F /  7.9 °C 25.0 °F /  -3.9 °C 30.45in /  1031hPa WNW 0.9mph /  1.4km/h 4.0mph /  6.4km/h 43% 0.00in /  0mm
15:22 45.0 °F /  7.2 °C 22.6 °F /  -5.2 °C 30.44in /  1030.7hPa WNW 6.9mph /  11.1km/h 8.0mph /  12.9km/h 41% 0.00in /  0mm
15:32 44.6 °F /  7 °C 22.3 °F /  -5.4 °C 30.44in /  1030.7hPa WNW 6.0mph /  9.7km/h 12.0mph /  19.3km/h 41% 0.00in /  0mm
15:37 44.1 °F /  6.7 °C 21.9 °F /  -5.6 °C 30.44in /  1030.7hPa WSW 2.0mph /  3.2km/h 8.0mph /  12.9km/h 41% 0.00in /  0mm
15:42 44.4 °F /  6.9 °C 23.9 °F /  -4.5 °C 30.44in /  1030.7hPa NW 4.9mph /  7.9km/h 7.0mph /  11.3km/h 44% 0.00in /  0mm
15:47 45.0 °F /  7.2 °C 22.6 °F /  -5.2 °C 30.44in /  1030.7hPa West 2.9mph /  4.7km/h 12.0mph /  19.3km/h 41% 0.00in /  0mm
15:52 45.0 °F /  7.2 °C 22.6 °F /  -5.2 °C 30.43in /  1030.4hPa SW 2.9mph /  4.7km/h 11.0mph /  17.7km/h 41% 0.00in /  0mm
15:57 45.1 °F /  7.3 °C 24.4 °F /  -4.2 °C 30.43in /  1030.4hPa WNW 6.0mph /  9.7km/h 8.0mph /  12.9km/h 44% 0.00in /  0mm
16:07 45.1 °F /  7.3 °C 22.8 °F /  -5.1 °C 30.44in /  1030.7hPa NW 6.0mph /  9.7km/h 12.0mph /  19.3km/h 41% 0.00in /  0mm
16:12 45.5 °F /  7.5 °C 24.3 °F /  -4.3 °C 30.43in /  1030.4hPa SE 6.0mph /  9.7km/h 12.0mph /  19.3km/h 43% 0.00in /  0mm
16:17 46.0 °F /  7.8 °C 23.7 °F /  -4.6 °C 30.42in /  1030hPa ENE 4.0mph /  6.4km/h 14.0mph /  22.5km/h 41% 0.00in /  0mm
16:22 45.9 °F /  7.7 °C 22.8 °F /  -5.1 °C 30.42in /  1030hPa West 2.9mph /  4.7km/h 7.0mph /  11.3km/h 40% 0.00in /  0mm
16:27 45.9 °F /  7.7 °C 22.3 °F /  -5.4 °C 30.42in /  1030hPa SW 2.9mph /  4.7km/h 14.0mph /  22.5km/h 39% 0.00in /  0mm
16:37 47.1 °F /  8.4 °C 24.1 °F /  -4.4 °C 30.42in /  1030hPa WNW 11.0mph /  17.7km/h 11.0mph /  17.7km/h 40% 0.00in /  0mm
16:42 46.9 °F /  8.3 °C 22.1 °F /  -5.5 °C 30.42in /  1030hPa West 4.0mph /  6.4km/h 11.0mph /  17.7km/h 37% 0.00in /  0mm
16:47 47.1 °F /  8.4 °C 22.8 °F /  -5.1 °C 30.42in /  1030hPa WNW 4.0mph /  6.4km/h 9.0mph /  14.5km/h 38% 0.00in /  0mm
16:52 46.9 °F /  8.3 °C 22.6 °F /  -5.2 °C 30.42in /  1030hPa WNW 10.1mph /  16.3km/h 13.0mph /  20.9km/h 38% 0.00in /  0mm
16:57 47.1 °F /  8.4 °C 25.2 °F /  -3.8 °C 30.42in /  1030hPa West 2.0mph /  3.2km/h 7.0mph /  11.3km/h 42% 0.00in /  0mm
17:02 47.3 °F /  8.5 °C 23.0 °F /  -5 °C 30.42in /  1030hPa WSW 4.9mph /  7.9km/h 11.0mph /  17.7km/h 38% 0.00in /  0mm
17:07 47.1 °F /  8.4 °C 22.8 °F /  -5.1 °C 30.41in /  1029.7hPa WNW 8.9mph /  14.3km/h 13.0mph /  20.9km/h 38% 0.00in /  0mm
17:12 47.7 °F /  8.7 °C 22.6 °F /  -5.2 °C 30.42in /  1030hPa WNW 4.9mph /  7.9km/h 11.0mph /  17.7km/h 37% 0.00in /  0mm
17:22 46.9 °F /  8.3 °C 22.6 °F /  -5.2 °C 30.42in /  1030hPa West 4.9mph /  7.9km/h 12.0mph /  19.3km/h 38% 0.00in /  0mm
17:27 46.9 °F /  8.3 °C 24.4 °F /  -4.2 °C 30.41in /  1029.7hPa ESE 2.9mph /  4.7km/h 18.0mph /  29km/h 41% 0.00in /  0mm
17:47 46.9 °F /  8.3 °C 24.4 °F /  -4.2 °C 30.42in /  1030hPa WNW 4.0mph /  6.4km/h 4.0mph /  6.4km/h 41% 0.00in /  0mm
17:57 45.9 °F /  7.7 °C 23.5 °F /  -4.7 °C 30.42in /  1030hPa WNW 2.9mph /  4.7km/h 9.0mph /  14.5km/h 41% 0.00in /  0mm
18:17 44.8 °F /  7.1 °C 23.7 °F /  -4.6 °C 30.43in /  1030.4hPa West 4.9mph /  7.9km/h 8.0mph /  12.9km/h 43% 0.00in /  0mm
18:23 44.1 °F /  6.7 °C 23.0 °F /  -5 °C 30.43in /  1030.4hPa Calm   9.0mph /  14.5km/h 43% 0.00in /  0mm
18:28 43.9 °F /  6.6 °C 23.4 °F /  -4.8 °C 30.43in /  1030.4hPa NW 8.9mph /  14.3km/h 11.0mph /  17.7km/h 44% 0.00in /  0mm
18:38 44.2 °F /  6.8 °C 23.2 °F /  -4.9 °C 30.43in /  1030.4hPa WNW 2.9mph /  4.7km/h 8.0mph /  12.9km/h 43% 0.00in /  0mm
18:48 43.2 °F /  6.2 °C 23.2 °F /  -4.9 °C 30.43in /  1030.4hPa West 12.1mph /  19.5km/h 14.0mph /  22.5km/h 45% 0.00in /  0mm
18:53 42.3 °F /  5.7 °C 23.5 °F /  -4.7 °C 30.43in /  1030.4hPa NW 2.9mph /  4.7km/h 12.0mph /  19.3km/h 47% 0.00in /  0mm
18:58 41.9 °F /  5.5 °C 23.7 °F /  -4.6 °C 30.43in /  1030.4hPa NW 0.9mph /  1.4km/h 3.0mph /  4.8km/h 48% 0.00in /  0mm
19:03 41.7 °F /  5.4 °C 23.5 °F /  -4.7 °C 30.42in /  1030hPa WSW 2.9mph /  4.7km/h 5.0mph /  8km/h 48% 0.00in /  0mm
19:23 41.4 °F /  5.2 °C 24.1 °F /  -4.4 °C 30.43in /  1030.4hPa WNW 4.0mph /  6.4km/h 6.0mph /  9.7km/h 50% 0.00in /  0mm
19:48 40.8 °F /  4.9 °C 23.5 °F /  -4.7 °C 30.43in /  1030.4hPa WNW 2.0mph /  3.2km/h 4.0mph /  6.4km/h 50% 0.00in /  0mm
19:53 40.6 °F /  4.8 °C 23.5 °F /  -4.7 °C 30.43in /  1030.4hPa WSW 8.1mph /  13km/h 8.1mph /  13km/h 50% 0.00in /  0mm
19:58 40.6 °F /  4.8 °C 23.9 °F /  -4.5 °C 30.43in /  1030.4hPa Calm   3.0mph /  4.8km/h 51% 0.00in /  0mm
20:03 40.6 °F /  4.8 °C 23.5 °F /  -4.7 °C 30.43in /  1030.4hPa West 0.9mph /  1.4km/h 7.0mph /  11.3km/h 50% 0.00in /  0mm
20:08 40.6 °F /  4.8 °C 23.9 °F /  -4.5 °C 30.43in /  1030.4hPa WSW 2.9mph /  4.7km/h 10.0mph /  16.1km/h 51% 0.00in /  0mm
20:13 40.6 °F /  4.8 °C 23.9 °F /  -4.5 °C 30.43in /  1030.4hPa WNW 6.0mph /  9.7km/h 6.0mph /  9.7km/h 51% 0.00in /  0mm
20:19 40.6 °F /  4.8 °C 24.4 °F /  -4.2 °C 30.43in /  1030.4hPa NW 8.9mph /  14.3km/h 9.0mph /  14.5km/h 52% 0.00in /  0mm
20:24 40.6 °F /  4.8 °C 23.9 °F /  -4.5 °C 30.43in /  1030.4hPa SW 2.0mph /  3.2km/h 5.0mph /  8km/h 51% 0.00in /  0mm
20:34 40.6 °F /  4.8 °C 24.8 °F /  -4 °C 30.43in /  1030.4hPa West 0.9mph /  1.4km/h 2.0mph /  3.2km/h 53% 0.00in /  0mm
20:39 40.6 °F /  4.8 °C 24.4 °F /  -4.2 °C 30.43in /  1030.4hPa West 0.9mph /  1.4km/h 5.0mph /  8km/h 52% 0.00in /  0mm
20:54 40.6 °F /  4.8 °C 24.8 °F /  -4 °C 30.43in /  1030.4hPa Calm   7.0mph /  11.3km/h 53% 0.00in /  0mm
20:59 40.5 °F /  4.7 °C 24.3 °F /  -4.3 °C 30.43in /  1030.4hPa WNW 4.0mph /  6.4km/h 7.0mph /  11.3km/h 52% 0.00in /  0mm
21:04 40.6 °F /  4.8 °C 24.4 °F /  -4.2 °C 30.43in /  1030.4hPa Calm   3.0mph /  4.8km/h 52% 0.00in /  0mm
21:09 40.6 °F /  4.8 °C 24.4 °F /  -4.2 °C 30.43in /  1030.4hPa Calm   4.0mph /  6.4km/h 52% 0.00in /  0mm
21:19 40.5 °F /  4.7 °C 24.3 °F /  -4.3 °C 30.43in /  1030.4hPa NNE 2.0mph /  3.2km/h 5.0mph /  8km/h 52% 0.00in /  0mm
21:24 40.5 °F /  4.7 °C 24.3 °F /  -4.3 °C 30.43in /  1030.4hPa SE 0.9mph /  1.4km/h 6.0mph /  9.7km/h 52% 0.00in /  0mm
21:29 40.5 °F /  4.7 °C 24.6 °F /  -4.1 °C 30.43in /  1030.4hPa Calm   6.0mph /  9.7km/h 53% 0.00in /  0mm
21:59 40.1 °F /  4.5 °C 23.9 °F /  -4.5 °C 30.43in /  1030.4hPa Calm   4.0mph /  6.4km/h 52% 0.00in /  0mm
22:04 40.1 °F /  4.5 °C 23.4 °F /  -4.8 °C 30.43in /  1030.4hPa NW 2.0mph /  3.2km/h 10.0mph /  16.1km/h 51% 0.00in /  0mm
22:09 40.1 °F /  4.5 °C 23.4 °F /  -4.8 °C 30.43in /  1030.4hPa WNW 8.1mph /  13km/h 10.0mph /  16.1km/h 51% 0.00in /  0mm
22:14 40.1 °F /  4.5 °C 23.4 °F /  -4.8 °C 30.43in /  1030.4hPa West 4.0mph /  6.4km/h 11.0mph /  17.7km/h 51% 0.00in /  0mm
22:19 39.9 °F /  4.4 °C 23.2 °F /  -4.9 °C 30.43in /  1030.4hPa ESE 2.0mph /  3.2km/h 7.0mph /  11.3km/h 51% 0.00in /  0mm
22:24 39.9 °F /  4.4 °C 23.2 °F /  -4.9 °C 30.43in /  1030.4hPa SSE 0.9mph /  1.4km/h 4.0mph /  6.4km/h 51% 0.00in /  0mm
22:29 39.9 °F /  4.4 °C 22.8 °F /  -5.1 °C 30.43in /  1030.4hPa WNW 2.0mph /  3.2km/h 7.0mph /  11.3km/h 50% 0.00in /  0mm
22:44 39.7 °F /  4.3 °C 23.5 °F /  -4.7 °C 30.43in /  1030.4hPa East 0.9mph /  1.4km/h 9.0mph /  14.5km/h 52% 0.00in /  0mm
23:09 39.0 °F /  3.9 °C 23.7 °F /  -4.6 °C 30.43in /  1030.4hPa ESE 2.0mph /  3.2km/h 6.0mph /  9.7km/h 54% 0.00in /  0mm
23:20 38.7 °F /  3.7 °C 23.4 °F /  -4.8 °C 30.43in /  1030.4hPa East 0.9mph /  1.4km/h 5.0mph /  8km/h 54% 0.00in /  0mm
23:25 38.5 °F /  3.6 °C 22.8 °F /  -5.1 °C 30.43in /  1030.4hPa East 4.0mph /  6.4km/h 4.0mph /  6.4km/h 53% 0.00in /  0mm
23:30 38.3 °F /  3.5 °C 23.2 °F /  -4.9 °C 30.44in /  1030.7hPa West 4.0mph /  6.4km/h 10.0mph /  16.1km/h 54% 0.00in /  0mm
23:35 38.3 °F /  3.5 °C 22.6 °F /  -5.2 °C 30.44in /  1030.7hPa SE 2.9mph /  4.7km/h 14.0mph /  22.5km/h 53% 0.00in /  0mm
23:40 38.1 °F /  3.4 °C 22.5 °F /  -5.3 °C 30.44in /  1030.7hPa ESE 4.9mph /  7.9km/h 5.0mph /  8km/h 53% 0.00in /  0mm
23:45 37.9 °F /  3.3 °C 22.8 °F /  -5.1 °C 30.44in /  1030.7hPa NE 4.0mph /  6.4km/h 10.0mph /  16.1km/h 54% 0.00in /  0mm
23:50 37.9 °F /  3.3 °C 22.3 °F /  -5.4 °C 30.44in /  1030.7hPa SW 6.0mph /  9.7km/h 7.0mph /  11.3km/h 53% 0.00in /  0mm
23:55 37.8 °F /  3.2 °C 21.7 °F /  -5.7 °C 30.44in /  1030.7hPa WNW 0.9mph /  1.4km/h 13.0mph /  20.9km/h 52% 0.00in /  0mm
WheeWeather.com
Compliments of Weather Underground - 2 mb